Home > Products > Valid Products > TAF

000
FTUS45 KGGW 211700
TAFOLF
TAF
KOLF 211722Z 2118/2218 VRB06KT P6SM FEW120
     FM220300 29011KT P6SM BKN100
     FM220900 VRB06KT P6SM BKN060=



000
FTUS45 KGGW 211700
TAFGDV
TAF
KGDV 211722Z 2118/2218 16007KT P6SM SKC
     FM220400 28015KT P6SM BKN120
     FM220900 26011KT P6SM OVC050
      AMD LTD TO CLD VIS AND WIND=



000
FTUS45 KGGW 211700
TAFSDY
TAF
KSDY 211722Z 2118/2218 VRB06KT P6SM SKC
     FM220600 27015KT P6SM BKN060
      AMD LTD TO CLD VIS AND WIND=



000
FTUS45 KGGW 211700
TAFGGW
TAF
KGGW 211722Z 2118/2218 13012KT P6SM SCT100
     FM220000 VRB06KT P6SM BKN090
     FM220200 29015KT P6SM VCSH BKN070
     FM221500 30011KT P6SM OVC050=



000
FTUS45 KGGW 211100
TAFGDV
TAF
KGDV 211135Z 2112/2212 VRB05KT P6SM SKC
     FM212100 20007KT P6SM BKN200
     FM220400 29015G22KT P6SM BKN100
      AMD LTD TO CLD VIS AND WIND=



000
FTUS45 KGGW 211100
TAFOLF
TAF
KOLF 211135Z 2112/2212 08006KT P6SM SKC
     FM212000 VRB05KT P6SM BKN200
     FM220400 27014G20KT P6SM BKN100=



000
FTUS45 KGGW 211100
TAFOLF
TAF
KOLF 211135Z 2112/2212 08006KT P6SM SKC
     FM212000 VRB05KT P6SM BKN200
     FM220400 27014G20KT P6SM BKN100=



000
FTUS45 KGGW 211100
TAFGDV
TAF
KGDV 211135Z 2112/2212 VRB05KT P6SM SKC
     FM212100 20007KT P6SM BKN200
     FM220400 29015G22KT P6SM BKN100
      AMD LTD TO CLD VIS AND WIND=



000
FTUS45 KGGW 211100
TAFGGW
TAF
KGGW 211135Z 2112/2212 10011KT P6SM SKC
     FM211900 VRB06KT P6SM BKN200
     FM220300 30014G22KT P6SM BKN120=



000
FTUS45 KGGW 211100
TAFOLF
TAF
KOLF 211135Z 2112/2212 08006KT P6SM SKC
     FM212000 VRB05KT P6SM BKN200
     FM220400 27014G20KT P6SM BKN100=



000
FTUS45 KGGW 211100
TAFSDY
TAF
KSDY 211135Z 2112/2212 VRB06KT P6SM SKC
     FM212200 24008KT P6SM BKN200
     FM220600 26013G21KT P6SM BKN100
      AMD LTD TO CLD VIS AND WIND=



000
FTUS45 KGGW 211100
TAFGDV
TAF
KGDV 211135Z 2112/2212 VRB05KT P6SM SKC
     FM212100 20007KT P6SM BKN200
     FM220400 29015G22KT P6SM BKN100
      AMD LTD TO CLD VIS AND WIND=



000
FTUS45 KGGW 211100
TAFGGW
TAF
KGGW 211135Z 2112/2212 10011KT P6SM SKC
     FM211900 VRB06KT P6SM BKN200
     FM220300 30014G22KT P6SM BKN120=



000
FTUS45 KGGW 211100
TAFOLF
TAF
KOLF 211135Z 2112/2212 08006KT P6SM SKC
     FM212000 VRB05KT P6SM BKN200
     FM220400 27014G20KT P6SM BKN100=



000
FTUS45 KGGW 211100
TAFGDV
TAF
KGDV 211135Z 2112/2212 VRB05KT P6SM SKC
     FM212100 20007KT P6SM BKN200
     FM220400 29015G22KT P6SM BKN100
      AMD LTD TO CLD VIS AND WIND=



000
FTUS45 KGGW 211100
TAFSDY
TAF
KSDY 211135Z 2112/2212 VRB06KT P6SM SKC
     FM212200 24008KT P6SM BKN200
     FM220600 26013G21KT P6SM BKN100
      AMD LTD TO CLD VIS AND WIND=



000
FTUS45 KGGW 210500
TAFGDV
TAF
KGDV 210520Z 2106/2206 16007KT P6SM SKC
     FM210900 VRB03KT P6SM FEW250
     FM220300 28011KT P6SM SCT100
      AMD LTD TO CLD VIS AND WIND=



000
FTUS45 KGGW 210500
TAFSDY
TAF
KSDY 210520Z 2106/2206 VRB06KT P6SM SKC
      AMD LTD TO CLD VIS AND WIND=



000
FTUS45 KGGW 210500
TAFGGW
TAF
KGGW 210520Z 2106/2206 11011KT P6SM SKC
     FM211200 VRB06KT P6SM FEW110
     FM220000 VRB05KT P6SM BKN120=



000
FTUS45 KGGW 210500
TAFGDV
TAF
KGDV 210520Z 2106/2206 16007KT P6SM SKC
     FM210900 VRB03KT P6SM FEW250
     FM220300 28011KT P6SM SCT100
      AMD LTD TO CLD VIS AND WIND=



000
FTUS45 KGGW 210500
TAFOLF
TAF
KOLF 210520Z 2106/2206 00000KT P6SM SKC
     FM220300 25007KT P6SM SCT100=



000
FTUS45 KGGW 210500
TAFOLF
TAF
KOLF 210520Z 2106/2206 00000KT P6SM SKC
     FM220300 25007KT P6SM SCT100=



000
FTUS45 KGGW 202300
TAFGDV
TAF
KGDV 202320Z 2100/2124 VRB05KT P6SM SKC
     FM212100 VRB04KT P6SM SCT150
      AMD LTD TO CLD VIS AND WIND=



000
FTUS45 KGGW 202300
TAFOLF
TAF
KOLF 202320Z 2100/2124 VRB05KT P6SM SKC
     FM211800 VRB03KT P6SM BKN150=



000
FTUS45 KGGW 202300
TAFSDY
TAF
KSDY 202320Z 2100/2124 VRB03KT P6SM SKC
      AMD LTD TO CLD VIS AND WIND=



000
FTUS45 KGGW 202300
TAFGDV
TAF
KGDV 202320Z 2100/2124 VRB05KT P6SM SKC
     FM212100 VRB04KT P6SM SCT150
      AMD LTD TO CLD VIS AND WIND=



000
FTUS45 KGGW 202300
TAFOLF
TAF
KOLF 202320Z 2100/2124 VRB05KT P6SM SKC
     FM211800 VRB03KT P6SM BKN150=



000
FTUS45 KGGW 202300
TAFGGW
TAF
KGGW 202320Z 2100/2124 12008KT P6SM SKC
     FM211500 VRB06KT P6SM BKN150=



000
FTUS45 KGGW 201700
TAFOLF
TAF
KOLF 201725Z 2018/2118 VRB06KT P6SM SKC=



000
FTUS45 KGGW 201700
TAFGDV
TAF
KGDV 201725Z 2018/2118 17009KT P6SM SKC
     FM210300 VRB04KT P6SM FEW200
      AMD LTD TO CLD VIS AND WIND=



000
FTUS45 KGGW 201700
TAFOLF
TAF
KOLF 201725Z 2018/2118 VRB06KT P6SM SKC=



000
FTUS45 KGGW 201700
TAFGDV
TAF
KGDV 201725Z 2018/2118 17009KT P6SM SKC
     FM210300 VRB04KT P6SM FEW200
      AMD LTD TO CLD VIS AND WIND=



000
FTUS45 KGGW 201700
TAFSDY
TAF
KSDY 201725Z 2018/2118 16008KT P6SM SKC
     FM210300 VRB03KT P6SM FEW200
      AMD LTD TO CLD VIS AND WIND=



000
FTUS45 KGGW 201700
TAFGGW
TAF
KGGW 201725Z 2018/2118 13011KT P6SM SKC
     FM210300 11008KT P6SM FEW200=



000
FTUS45 KGGW 201600 AAA
TAFGGW
TAF AMD
KGGW 201608Z 2016/2112 12012KT P6SM SKC=



000
FTUS45 KGGW 201100
TAFGDV
TAF
KGDV 201138Z 2012/2112 17007KT P6SM SKC
      AMD LTD TO CLD VIS AND WIND=



000
FTUS45 KGGW 201100
TAFSDY
TAF
KSDY 201138Z 2012/2112 18007KT P6SM SKC
      AMD LTD TO CLD VIS AND WIND=



000
FTUS45 KGGW 201100
TAFGGW
TAF
KGGW 201138Z 2012/2112 12009KT P6SM SKC=



000
FTUS45 KGGW 201100
TAFGDV
TAF
KGDV 201138Z 2012/2112 17007KT P6SM SKC
      AMD LTD TO CLD VIS AND WIND=



000
FTUS45 KGGW 201100
TAFOLF
TAF
KOLF 201138Z 2012/2112 VRB06KT P6SM SKC=



000
FTUS45 KGGW 201100
TAFOLF
TAF
KOLF 201138Z 2012/2112 VRB06KT P6SM SKC=



000
FTUS45 KGGW 200500
TAFOLF
TAF
KOLF 200520Z 2006/2106 VRB06KT P6SM SCT200=



000
FTUS45 KGGW 200500
TAFGDV
TAF
KGDV 200520Z 2006/2106 VRB06KT P6SM SCT200
     FM201600 16007KT P6SM SKC
      AMD LTD TO CLD VIS AND WIND=



000
FTUS45 KGGW 200500
TAFSDY
TAF
KSDY 200520Z 2006/2106 VRB06KT P6SM SCT200
     FM201600 18007KT P6SM SKC
      AMD LTD TO CLD VIS AND WIND=



000
FTUS45 KGGW 200500
TAFGGW
TAF
KGGW 200520Z 2006/2106 11009KT P6SM SKC
     FM201800 15008KT P6SM SKC
     FM210100 11008KT P6SM SKC=



000
FTUS45 KGGW 200500
TAFGDV
TAF
KGDV 200520Z 2006/2106 VRB06KT P6SM SCT200
     FM201600 16007KT P6SM SKC
      AMD LTD TO CLD VIS AND WIND=



000
FTUS45 KGGW 200500
TAFOLF
TAF
KOLF 200520Z 2006/2106 VRB06KT P6SM SCT200=



000
FTUS45 KGGW 192300
TAFSDY
TAF
KSDY 192328Z 2000/2024 VRB06KT P6SM SCT200
     FM201600 18007KT P6SM SKC
      AMD LTD TO CLD VIS AND WIND=



000
FTUS45 KGGW 192300
TAFGDV
TAF
KGDV 192328Z 2000/2024 VRB06KT P6SM SCT200
     FM201600 18007KT P6SM SKC
      AMD LTD TO CLD VIS AND WIND=



000
FTUS45 KGGW 192300
TAFGGW
TAF
KGGW 192328Z 2000/2024 12008KT P6SM SCT200=



000
FTUS45 KGGW 192300
TAFOLF
TAF
KOLF 192328Z 2000/2024 VRB06KT P6SM SCT200=



000
FTUS45 KGGW 192300
TAFGDV
TAF
KGDV 192328Z 2000/2024 VRB06KT P6SM SCT200
     FM201600 18007KT P6SM SKC
      AMD LTD TO CLD VIS AND WIND=



000
FTUS45 KGGW 192300
TAFGGW
TAF
KGGW 192328Z 2000/2024 12008KT P6SM SCT200=



000
FTUS45 KGGW 192300
TAFSDY
TAF
KSDY 192328Z 2000/2024 VRB06KT P6SM SCT200
     FM201600 18007KT P6SM SKC
      AMD LTD TO CLD VIS AND WIND=



000
FTUS45 KGGW 192300
TAFOLF
TAF
KOLF 192328Z 2000/2024 VRB06KT P6SM SCT200=



000
FTUS45 KGGW 191700
TAFGDV
TAF
KGDV 191720Z 1918/2018 VRB06KT P6SM SKC
      AMD LTD TO CLD VIS AND WIND=



000
FTUS45 KGGW 191700
TAFOLF
TAF
KOLF 191720Z 1918/2018 VRB06KT P6SM SKC=



000
FTUS45 KGGW 191700
TAFGDV
TAF
KGDV 191720Z 1918/2018 VRB06KT P6SM SKC
      AMD LTD TO CLD VIS AND WIND=



000
FTUS45 KGGW 191700
TAFSDY
TAF
KSDY 191720Z 1918/2018 VRB06KT P6SM SKC
      AMD LTD TO CLD VIS AND WIND=



000
FTUS45 KGGW 191700
TAFOLF
TAF
KOLF 191720Z 1918/2018 VRB06KT P6SM SKC=



000
FTUS45 KGGW 191700
TAFGGW
TAF
KGGW 191720Z 1918/2018 VRB06KT P6SM SKC
     FM200000 12010KT P6SM SKC=



000
FTUS45 KGGW 191100
TAFGDV
TAF
KGDV 191137Z 1912/2012 29009KT P6SM FEW001
     FM191600 28007KT P6SM SKC
      AMD LTD TO CLD VIS AND WIND=



000
FTUS45 KGGW 191100
TAFGGW
TAF
KGGW 191137Z 1912/2012 29006KT P6SM SKC=



000
FTUS45 KGGW 191100
TAFSDY
TAF
KSDY 191137Z 1912/2012 27008KT P6SM SKC
      AMD LTD TO CLD VIS AND WIND=



000
FTUS45 KGGW 191100
TAFOLF
TAF
KOLF 191137Z 1912/2012 26006KT P6SM SKC=



000
FTUS45 KGGW 191100
TAFGDV
TAF
KGDV 191137Z 1912/2012 29009KT P6SM FEW001
     FM191600 28007KT P6SM SKC
      AMD LTD TO CLD VIS AND WIND=



000
FTUS45 KGGW 191100
TAFOLF
TAF
KOLF 191137Z 1912/2012 26006KT P6SM SKC=



000
FTUS45 KGGW 190500
TAFSDY
TAF
KSDY 190520Z 1906/2006 VRB04KT P6SM SCT150
      AMD LTD TO CLD VIS AND WIND=



000
FTUS45 KGGW 190500
TAFOLF
TAF
KOLF 190520Z 1906/2006 26006KT P6SM SKC=



000
FTUS45 KGGW 190500
TAFGDV
TAF
KGDV 190520Z 1906/2006 25010KT P6SM SCT150
     FM200200 28007KT P6SM SKC
      AMD LTD TO CLD VIS AND WIND=



000
FTUS45 KGGW 190500
TAFGDV
TAF
KGDV 190520Z 1906/2006 25010KT P6SM SCT150
     FM200200 28007KT P6SM SKC
      AMD LTD TO CLD VIS AND WIND=



000
FTUS45 KGGW 190500
TAFOLF
TAF
KOLF 190520Z 1906/2006 26006KT P6SM SKC=



000
FTUS45 KGGW 190500
TAFGGW
TAF
KGGW 190520Z 1906/2006 27006KT P6SM SKC=



000
FTUS45 KGGW 182300
TAFGDV
TAF
KGDV 182335Z 1900/1924 25010KT P6SM SCT150
     FM190200 28007KT P6SM SKC
      AMD LTD TO CLD VIS AND WIND=



000
FTUS45 KGGW 182300
TAFSDY
TAF
KSDY 182335Z 1900/1924 VRB04KT P6SM SCT150
      AMD LTD TO CLD VIS AND WIND=



000
FTUS45 KGGW 182300
TAFGGW
TAF
KGGW 182335Z 1900/1924 27006KT P6SM SKC=



000
FTUS45 KGGW 182300
TAFGDV
TAF
KGDV 182335Z 1900/1924 25010KT P6SM SCT150
     FM190200 28007KT P6SM SKC
      AMD LTD TO CLD VIS AND WIND=



000
FTUS45 KGGW 182300
TAFOLF
TAF
KOLF 182335Z 1900/1924 26006KT P6SM SKC=



000
FTUS45 KGGW 182300
TAFOLF
TAF
KOLF 182335Z 1900/1924 26006KT P6SM SKC=



    US Dept of Commerce
    National Oceanic and Atmospheric Administration
    National Weather Service
    1325 East West Highway
    Silver Spring, MD 20910
    Page Author: NWS Internet Services Team
Disclaimer
Information Quality
Credits
Glossary
Privacy Policy
Freedom of Information Act (FOIA)
About Us
Career Opportunities